createdAt,value
2023-04-29T00:05:14.923Z,11.00
2023-04-29T00:17:15.059Z,11.20
2023-04-29T00:29:15.457Z,13.70
2023-04-29T00:41:15.943Z,13.50
2023-04-29T00:53:16.394Z,14.10
2023-04-29T01:05:16.817Z,12.20
2023-04-29T01:17:17.290Z,12.50
2023-04-29T01:29:17.753Z,9.60
2023-04-29T01:41:18.194Z,12.20
2023-04-29T01:53:18.646Z,11.10
2023-04-29T02:05:19.089Z,15.50
2023-04-29T02:17:19.549Z,18.10
2023-04-29T02:29:20.014Z,21.90
2023-04-29T02:41:20.458Z,28.60
2023-04-29T02:53:20.937Z,18.50
2023-04-29T03:05:21.389Z,21.60
2023-04-29T03:17:21.843Z,21.50
2023-04-29T03:29:22.241Z,32.80
2023-04-29T03:41:22.703Z,23.30
2023-04-29T03:53:23.196Z,22.90
2023-04-29T04:05:23.644Z,20.50
2023-04-29T04:17:24.046Z,21.60
2023-04-29T04:29:24.530Z,21.30
2023-04-29T04:41:24.993Z,19.60
2023-04-29T04:53:25.459Z,15.40
2023-04-29T05:05:25.878Z,18.20
2023-04-29T05:17:26.429Z,14.90
2023-04-29T05:29:26.780Z,16.90
2023-04-29T05:41:27.252Z,19.80
2023-04-29T05:53:27.792Z,16.00
2023-04-29T06:05:28.893Z,13.60
2023-04-29T06:17:28.619Z,15.60
2023-04-29T06:29:29.088Z,12.50
2023-04-29T06:41:29.510Z,7.40
2023-04-29T06:53:29.985Z,5.70
2023-04-29T07:05:30.416Z,5.50
2023-04-29T07:17:30.919Z,7.00
2023-04-29T07:29:31.326Z,6.80
2023-04-29T07:41:31.769Z,4.10
2023-04-29T07:53:32.215Z,4.00
2023-04-29T08:05:33.061Z,3.50
2023-04-29T08:17:33.183Z,3.10
2023-04-29T08:29:33.598Z,2.40
2023-04-29T08:41:34.051Z,3.40
2023-04-29T08:53:34.511Z,2.40
2023-04-29T09:05:34.972Z,3.30
2023-04-29T09:17:35.440Z,4.40
2023-04-29T09:29:35.876Z,2.50
2023-04-29T09:41:36.359Z,2.80
2023-04-29T09:53:36.765Z,3.60
2023-04-29T10:05:37.249Z,5.30
2023-04-29T10:17:37.681Z,2.20
2023-04-29T10:29:38.136Z,2.90
2023-04-29T10:41:38.603Z,4.40
2023-04-29T10:53:39.061Z,2.90
2023-04-29T11:05:39.492Z,2.50
2023-04-29T11:17:39.995Z,4.80
2023-04-29T11:29:40.469Z,2.80
2023-04-29T11:41:40.874Z,2.20
2023-04-29T11:53:41.349Z,3.00
2023-04-29T12:05:41.822Z,2.80
2023-04-29T12:17:42.261Z,5.90
2023-04-29T12:29:42.699Z,3.60
2023-04-29T12:41:43.157Z,4.80
2023-04-29T12:53:43.610Z,4.70
2023-04-29T13:05:44.076Z,3.20
2023-04-29T13:17:44.540Z,4.10
2023-04-29T13:29:44.977Z,1.70
2023-04-29T13:41:46.173Z,3.60
2023-04-29T13:54:43.750Z,3.20
2023-04-29T14:05:46.475Z,14.00
2023-04-29T14:17:46.828Z,2.00
2023-04-29T14:29:47.274Z,2.10
2023-04-29T14:41:47.716Z,2.00
2023-04-29T14:53:48.188Z,1.50
2023-04-29T15:05:48.621Z,2.10
2023-04-29T15:17:49.126Z,1.40
2023-04-29T15:29:49.534Z,1.60
2023-04-29T15:41:49.993Z,1.50
2023-04-29T15:53:50.453Z,1.60
2023-04-29T16:05:50.936Z,2.10
2023-04-29T16:17:51.375Z,2.40
2023-04-29T16:29:54.821Z,2.50
2023-04-29T16:41:52.270Z,5.20
2023-04-29T16:53:52.762Z,3.80
2023-04-29T17:05:53.231Z,10.30
2023-04-29T17:17:53.622Z,11.20
2023-04-29T17:29:54.314Z,5.80
2023-04-29T17:41:54.569Z,11.00
2023-04-29T17:53:54.992Z,7.70
2023-04-29T18:05:55.473Z,14.10
2023-04-29T18:17:55.973Z,13.20
2023-04-29T18:29:56.503Z,15.10
2023-04-29T18:41:56.784Z,15.30
2023-04-29T18:53:57.259Z,12.50
2023-04-29T19:05:57.746Z,14.30
2023-04-29T19:17:58.207Z,7.90
2023-04-29T19:29:58.632Z,26.70
2023-04-29T19:41:59.074Z,12.00
2023-04-29T19:53:59.536Z,12.70
2023-04-29T20:06:00.085Z,8.80
2023-04-29T20:18:00.458Z,9.20
2023-04-29T20:30:00.922Z,7.30
2023-04-29T20:42:01.356Z,7.90
2023-04-29T20:54:01.817Z,15.20
2023-04-29T21:06:02.288Z,7.30
2023-04-29T21:18:02.794Z,7.20
2023-04-29T21:30:03.169Z,7.50
2023-04-29T21:42:03.665Z,8.80
2023-04-29T21:54:04.095Z,9.80
2023-04-29T22:06:04.511Z,7.60
2023-04-29T22:18:05.010Z,9.60
2023-04-29T22:30:05.482Z,7.70
2023-04-29T22:42:05.875Z,10.20
2023-04-29T22:54:06.347Z,7.70
2023-04-29T23:06:06.968Z,9.80
2023-04-29T23:18:07.340Z,7.30
2023-04-29T23:30:07.698Z,11.10
2023-04-29T23:42:08.159Z,7.00
2023-04-29T23:54:08.586Z,9.40
